Time;durP1;ratioP1;P1;durP2;ratioP2;P2;SDS_P1;SDS_P2;PMS_P1;PMS_P2;Temp;Humidity;BMP_temperature;BMP_pressure;BME280_temperature;BME280_humidity;BME280_pressure;Samples;Min_cycle;Max_cycle;Signal;HPM_P1;HPM_P2
2021/04/11 00:00:47;;;;;;;36.40;24.00;;;;;;;9.03;60.87;100644.66;104806;1108;78530;-64
2021/04/11 00:02:58;;;;;;;35.10;22.90;;;;;;;9.03;60.78;100639.27;104851;1108;79523;-64
2021/04/11 00:05:10;;;;;;;37.40;24.20;;;;;;;9.00;60.96;100634.23;104784;1108;77697;-65
2021/04/11 00:07:15;;;;;;;34.80;24.20;;;;;;;8.97;60.76;100631.88;104851;1108;78950;-64
2021/04/11 00:09:23;;;;;;;37.40;25.30;;;;;;;8.93;60.77;100634.06;104854;1108;79915;-64
2021/04/11 00:11:28;;;;;;;35.20;24.00;;;;;;;8.89;60.83;100628.20;104865;1108;77322;-66
2021/04/11 00:13:38;;;;;;;33.50;23.90;;;;;;;8.85;60.72;100631.39;104821;1108;78141;-66
2021/04/11 00:15:43;;;;;;;38.60;25.70;;;;;;;8.78;60.67;100623.19;104844;1107;78573;-66
2021/04/11 00:17:48;;;;;;;35.70;25.10;;;;;;;8.70;61.20;100628.59;104921;1108;77087;-67
2021/04/11 00:19:53;;;;;;;34.30;24.60;;;;;;;8.62;61.19;100620.53;104784;1108;78932;-67
2021/04/11 00:22:01;;;;;;;39.00;25.10;;;;;;;8.60;61.32;100625.22;104845;1108;78762;-67
2021/04/11 00:24:07;;;;;;;38.40;25.00;;;;;;;8.58;61.58;100619.17;104808;1108;78812;-67
2021/04/11 00:26:15;;;;;;;36.90;26.30;;;;;;;8.55;61.83;100624.91;104850;1108;78653;-64
2021/04/11 00:28:22;;;;;;;38.20;24.00;;;;;;;8.53;62.04;100629.63;104834;1108;76986;-64
2021/04/11 00:30:29;;;;;;;38.00;24.20;;;;;;;8.55;61.73;100630.28;104846;1108;78134;-65
2021/04/11 00:32:34;;;;;;;33.20;23.10;;;;;;;8.55;61.78;100624.91;104827;1110;77741;-64
2021/04/11 00:34:39;;;;;;;36.60;25.00;;;;;;;8.54;61.74;100620.52;104882;1108;78194;-64
2021/04/11 00:36:44;;;;;;;36.90;24.00;;;;;;;8.55;61.53;100621.36;104886;1108;79004;-65
2021/04/11 00:38:52;;;;;;;36.40;24.50;;;;;;;8.50;62.23;100621.89;104846;1108;78683;-65
2021/04/11 00:41:01;;;;;;;38.40;24.30;;;;;;;8.49;62.28;100628.27;104833;1108;77143;-65
2021/04/11 00:43:10;;;;;;;40.00;25.50;;;;;;;8.47;62.11;100627.61;104875;1108;78889;-64
2021/04/11 00:45:25;;;;;;;39.40;27.10;;;;;;;8.47;62.40;100627.61;104855;1108;78066;-64
2021/04/11 00:47:33;;;;;;;37.30;25.20;;;;;;;8.47;62.65;100632.14;104874;1107;78307;-66
2021/04/11 00:49:46;;;;;;;39.60;25.20;;;;;;;8.44;62.87;100633.33;104870;1109;78174;-66
2021/04/11 00:51:52;;;;;;;38.40;24.20;;;;;;;8.42;62.94;100640.74;104840;1107;78118;-66
2021/04/11 00:54:03;;;;;;;39.10;25.40;;;;;;;8.39;62.61;100641.08;104890;1108;78347;-66
2021/04/11 00:56:09;;;;;;;35.50;24.80;;;;;;;8.36;62.92;100636.03;104880;1108;77765;-64
2021/04/11 00:58:14;;;;;;;38.50;25.40;;;;;;;8.34;63.23;100642.59;104905;1108;78503;-64
2021/04/11 01:00:25;;;;;;;36.20;24.50;;;;;;;8.38;63.26;100631.30;104859;1108;79296;-64
2021/04/11 01:02:30;;;;;;;35.00;24.70;;;;;;;8.40;63.31;100631.16;104791;1108;78553;-64
2021/04/11 01:04:35;;;;;;;32.40;22.90;;;;;;;8.39;63.30;100634.84;104808;1108;78829;-64
2021/04/11 01:06:44;;;;;;;35.60;23.00;;;;;;;8.39;63.03;100633.00;104840;1108;79156;-64
2021/04/11 01:08:52;;;;;;;36.10;23.60;;;;;;;8.36;63.48;100635.18;104864;1108;77028;-64
2021/04/11 01:11:03;;;;;;;32.70;22.80;;;;;;;8.33;63.36;100630.98;104879;1108;78294;-66
2021/04/11 01:13:11;;;;;;;34.00;23.80;;;;;;;8.33;63.48;100639.05;104846;1108;78955;-66
2021/04/11 01:15:25;;;;;;;33.10;23.80;;;;;;;8.30;63.61;100642.08;104902;1108;78448;-64
2021/04/11 01:17:30;;;;;;;34.80;23.50;;;;;;;8.29;63.21;100637.73;104820;1110;77652;-64
2021/04/11 01:19:41;;;;;;;29.30;20.60;;;;;;;8.23;63.68;100646.44;104881;1108;77078;-64
2021/04/11 01:22:07;;;;;;;31.00;21.60;;;;;;;8.15;63.92;100649.13;104833;1108;77138;-66
2021/04/11 01:24:20;;;;;;;32.70;21.50;;;;;;;8.13;63.86;100640.39;104813;1108;77425;-66
2021/04/11 01:26:26;;;;;;;30.80;20.90;;;;;;;8.16;63.94;100645.41;104864;1108;76967;-66
2021/04/11 01:28:38;;;;;;;33.70;22.20;;;;;;;8.17;63.71;100649.80;104817;1108;77787;-66
2021/04/11 01:30:45;;;;;;;32.50;24.00;;;;;;;8.05;63.93;100656.50;104861;1108;78917;-64
2021/04/11 01:32:51;;;;;;;34.30;22.70;;;;;;;8.05;64.30;100653.80;104812;1108;78724;-64
2021/04/11 01:34:57;;;;;;;32.50;23.40;;;;;;;8.01;64.38;100647.09;104872;1108;77179;-64
2021/04/11 01:37:06;;;;;;;35.70;21.90;;;;;;;8.00;64.16;100656.16;104804;1108;78114;-64
2021/04/11 01:39:16;;;;;;;30.90;20.80;;;;;;;8.00;64.03;100646.25;104832;1108;79305;-65
2021/04/11 01:41:29;;;;;;;33.90;20.30;;;;;;;7.99;64.52;100657.19;104852;1108;78100;-64
2021/04/11 01:43:37;;;;;;;26.10;19.30;;;;;;;7.99;64.64;100649.12;104846;1108;79564;-64
2021/04/11 01:45:44;;;;;;;30.80;20.30;;;;;;;8.00;64.46;100642.71;104834;1108;78729;-64
2021/04/11 01:47:52;;;;;;;31.10;20.80;;;;;;;7.98;64.48;100642.89;104893;1108;78887;-64
2021/04/11 01:50:11;;;;;;;33.40;21.80;;;;;;;7.96;64.63;100641.38;104789;1108;78649;-64
2021/04/11 01:52:21;;;;;;;29.40;20.20;;;;;;;7.92;64.22;100642.70;104875;1108;78726;-64
2021/04/11 01:54:30;;;;;;;32.40;20.50;;;;;;;7.87;64.41;100640.52;104821;1108;78277;-64
2021/04/11 01:56:42;;;;;;;33.40;21.20;;;;;;;7.85;64.43;100642.55;104836;1108;77998;-65
2021/04/11 01:58:47;;;;;;;38.00;22.70;;;;;;;7.83;64.75;100649.10;104828;1108;77448;-64
2021/04/11 02:01:12;;;;;;;29.80;21.00;;;;;;;7.79;64.84;100639.67;104826;1108;78878;-64
2021/04/11 02:03:19;;;;;;;30.30;20.50;;;;;;;7.77;64.79;100633.63;104831;1108;78666;-64
2021/04/11 02:05:26;;;;;;;35.40;22.00;;;;;;;7.68;64.99;100633.61;104868;1108;77838;-64
2021/04/11 02:07:35;;;;;;;33.80;22.40;;;;;;;7.59;65.09;100639.96;104851;1108;77304;-64
2021/04/11 02:09:46;;;;;;;31.60;21.60;;;;;;;7.52;65.18;100638.95;104866;1108;79442;-64
2021/04/11 02:11:52;;;;;;;35.10;22.80;;;;;;;7.46;65.07;100636.06;104799;1108;79366;-67
2021/04/11 02:13:59;;;;;;;32.70;22.40;;;;;;;7.44;65.08;100628.17;104871;1108;77311;-64
2021/04/11 02:16:07;;;;;;;34.80;22.30;;;;;;;7.43;65.46;100634.55;104857;1110;78209;-65
2021/04/11 02:18:14;;;;;;;34.50;22.40;;;;;;;7.44;65.50;100630.02;104863;1108;78915;-64
2021/04/11 02:20:24;;;;;;;34.30;22.00;;;;;;;7.45;65.17;100631.67;104856;1108;77283;-64
2021/04/11 02:22:32;;;;;;;32.40;21.40;;;;;;;7.40;65.63;100625.95;104825;1108;77721;-64
2021/04/11 02:24:42;;;;;;;32.70;20.60;;;;;;;7.36;65.58;100624.62;104831;1108;77095;-64
2021/04/11 02:26:50;;;;;;;37.50;21.40;;;;;;;7.34;65.83;100623.92;104791;1108;79301;-64
2021/04/11 02:28:56;;;;;;;32.80;21.40;;;;;;;7.34;65.45;100619.39;104815;1108;79040;-64
2021/04/11 02:31:17;;;;;;;33.30;22.20;;;;;;;7.34;65.80;100623.92;104853;1108;77520;-64
2021/04/11 02:33:25;;;;;;;32.40;22.40;;;;;;;7.28;66.06;100616.53;104817;1108;79815;-64
2021/04/11 02:35:33;;;;;;;34.90;22.40;;;;;;;7.25;65.64;100606.92;104832;1108;79040;-65
2021/04/11 02:37:46;;;;;;;30.20;21.60;;;;;;;7.27;65.99;100609.47;104871;1108;79429;-65
2021/04/11 02:39:57;;;;;;;34.20;22.60;;;;;;;7.25;65.83;100601.55;104860;1108;78266;-65
2021/04/11 02:42:12;;;;;;;35.60;23.40;;;;;;;7.18;66.27;100605.91;104851;1108;77225;-64
2021/04/11 02:44:18;;;;;;;33.30;22.60;;;;;;;7.15;65.93;100608.91;104814;1108;77235;-64
2021/04/11 02:46:26;;;;;;;32.40;22.10;;;;;;;7.12;66.07;100593.96;104802;1108;78389;-64
2021/04/11 02:48:31;;;;;;;30.60;22.40;;;;;;;7.11;66.05;100603.02;104862;1108;79105;-64
2021/04/11 02:50:41;;;;;;;34.10;23.40;;;;;;;7.05;66.32;100602.84;104892;1108;78021;-65
2021/04/11 02:52:52;;;;;;;32.20;22.90;;;;;;;7.01;66.34;100614.89;104845;1108;78461;-65
2021/04/11 02:55:01;;;;;;;34.70;22.10;;;;;;;6.94;66.25;100608.50;104825;1110;78358;-66
2021/04/11 02:57:08;;;;;;;36.90;22.30;;;;;;;6.86;66.58;100611.99;104781;1108;77264;-65
2021/04/11 02:59:16;;;;;;;31.50;20.60;;;;;;;6.83;66.51;100611.46;104854;1108;77108;-66
2021/04/11 03:01:30;;;;;;;34.90;21.70;;;;;;;6.81;66.67;100621.53;104839;1108;78676;-65
2021/04/11 03:03:35;;;;;;;37.00;22.90;;;;;;;6.76;66.64;100624.67;104819;1108;78070;-65
2021/04/11 03:05:40;;;;;;;35.00;22.30;;;;;;;6.72;66.91;100626.00;104879;1108;77319;-64
2021/04/11 03:07:48;;;;;;;35.40;24.30;;;;;;;6.71;66.95;100620.78;104829;1108;78339;-64
2021/04/11 03:10:03;;;;;;;34.00;23.80;;;;;;;6.68;67.12;100623.78;104825;1108;78622;-64
2021/04/11 03:12:12;;;;;;;32.90;22.90;;;;;;;6.66;66.82;100621.27;104959;1110;79245;-64
2021/04/11 03:14:19;;;;;;;33.10;22.30;;;;;;;6.65;67.09;100621.44;104800;1108;78203;-64
2021/04/11 03:16:25;;;;;;;34.50;24.10;;;;;;;6.58;67.06;100628.42;104804;1108;78265;-64
2021/04/11 03:18:32;;;;;;;36.40;22.50;;;;;;;6.52;67.24;100625.38;104839;1108;78252;-64
2021/04/11 03:20:40;;;;;;;33.70;23.70;;;;;;;6.50;67.49;100616.65;104863;1108;78688;-65
2021/04/11 03:22:45;;;;;;;37.30;23.90;;;;;;;6.48;67.37;100626.67;104831;1108;78229;-65
2021/04/11 03:24:52;;;;;;;36.10;25.40;;;;;;;6.41;67.31;100627.47;104825;1108;78755;-65
2021/04/11 03:27:06;;;;;;;39.90;25.70;;;;;;;6.35;67.27;100633.45;104847;1108;78500;-64
2021/04/11 03:29:17;;;;;;;36.10;24.30;;;;;;;6.23;67.70;100635.57;104857;1108;78923;-64
2021/04/11 03:31:30;;;;;;;35.60;23.80;;;;;;;6.21;67.61;100634.86;104860;1108;78871;-64
2021/04/11 03:33:41;;;;;;;35.80;24.80;;;;;;;6.15;67.96;100640.02;104857;1108;78148;-64
2021/04/11 03:35:49;;;;;;;33.70;23.30;;;;;;;6.08;67.83;100625.53;104872;1108;77855;-65
2021/04/11 03:38:02;;;;;;;34.70;23.50;;;;;;;6.05;67.95;100637.41;104869;1108;78385;-65
2021/04/11 03:40:17;;;;;;;36.10;24.30;;;;;;;5.96;68.11;100634.83;104856;1108;78886;-64
2021/04/11 03:42:27;;;;;;;37.50;23.50;;;;;;;5.90;68.17;100634.45;104870;1108;76988;-64
2021/04/11 03:44:32;;;;;;;35.60;23.00;;;;;;;5.86;68.23;100633.06;104844;1108;78360;-64
2021/04/11 03:46:55;;;;;;;34.30;23.50;;;;;;;5.86;68.31;100627.70;104864;1108;78511;-65
2021/04/11 03:49:07;;;;;;;34.10;24.10;;;;;;;5.84;68.33;100629.66;104874;1108;77932;-65
2021/04/11 03:51:23;;;;;;;35.50;24.00;;;;;;;5.78;68.39;100626.74;104843;1108;78932;-64
2021/04/11 03:53:36;;;;;;;34.70;24.30;;;;;;;5.74;68.54;100630.74;104797;1108;77663;-64
2021/04/11 03:55:47;;;;;;;36.30;23.20;;;;;;;5.67;68.63;100632.33;104831;1108;78246;-65
2021/04/11 03:57:57;;;;;;;35.20;22.40;;;;;;;5.67;68.74;100635.01;104841;1108;77356;-65
2021/04/11 04:00:08;;;;;;;36.80;23.70;;;;;;;5.62;68.69;100637.30;104833;1108;78049;-65
2021/04/11 04:02:15;;;;;;;33.70;23.30;;;;;;;5.61;68.67;100638.28;104862;1108;78372;-65
2021/04/11 04:04:23;;;;;;;35.70;22.80;;;;;;;5.50;68.97;100643.86;104850;1108;77783;-65
2021/04/11 04:06:34;;;;;;;30.60;21.40;;;;;;;5.50;69.21;100635.82;104862;1108;77682;-65
2021/04/11 04:08:40;;;;;;;34.10;21.70;;;;;;;5.45;69.36;100644.33;104871;1109;77231;-65
2021/04/11 04:10:58;;;;;;;31.20;21.50;;;;;;;5.42;69.32;100649.13;104853;1107;77699;-65
2021/04/11 04:13:17;;;;;;;33.90;21.30;;;;;;;5.44;69.33;100645.30;104881;1108;78246;-65
2021/04/11 04:15:44;;;;;;;32.40;22.00;;;;;;;5.47;69.26;100647.69;104861;1108;79082;-65
2021/04/11 04:18:10;;;;;;;31.40;20.90;;;;;;;5.50;69.41;100641.18;104827;1108;78194;-65
2021/04/11 04:20:24;;;;;;;31.10;21.40;;;;;;;5.50;69.45;100650.07;104843;1108;78158;-64
2021/04/11 04:22:43;;;;;;;32.10;21.80;;;;;;;5.48;69.53;100644.03;104873;1108;78361;-64
2021/04/11 04:25:01;;;;;;;31.90;20.50;;;;;;;5.47;69.71;100645.00;104824;1108;78909;-64
2021/04/11 04:27:22;;;;;;;31.10;20.20;;;;;;;5.50;69.63;100651.90;104971;1111;78614;-64
2021/04/11 04:29:46;;;;;;;31.10;21.20;;;;;;;5.50;70.04;100647.39;104841;1108;78224;-64
2021/04/11 04:32:20;;;;;;;31.50;20.20;;;;;;;5.60;70.00;100653.55;104806;1108;78385;-64
2021/04/11 04:34:34;;;;;;;30.70;21.00;;;;;;;5.65;70.22;100651.25;104835;1108;77591;-64
2021/04/11 04:36:45;;;;;;;34.00;21.00;;;;;;;5.85;69.99;100657.36;104931;1108;78887;-66
2021/04/11 04:38:58;;;;;;;39.30;21.20;;;;;;;6.08;70.22;100663.08;104889;1108;78087;-65
2021/04/11 04:41:14;;;;;;;30.40;21.30;;;;;;;6.20;70.06;100662.70;104861;1108;79019;-65
2021/04/11 04:43:31;;;;;;;31.40;21.40;;;;;;;6.45;69.91;100661.91;104835;1108;78562;-65
2021/04/11 04:45:43;;;;;;;34.00;23.60;;;;;;;6.72;70.08;100666.28;104843;1108;78184;-64
2021/04/11 04:47:55;;;;;;;33.80;22.00;;;;;;;7.09;69.86;100660.59;104892;1108;78076;-64
2021/04/11 04:50:12;;;;;;;38.60;23.00;;;;;;;7.45;69.60;100662.09;104880;1108;79238;-64
2021/04/11 04:52:24;;;;;;;45.40;28.10;;;;;;;7.71;69.01;100664.70;104842;1108;78126;-65
2021/04/11 04:54:36;;;;;;;39.00;28.30;;;;;;;7.90;68.56;100658.17;104851;1108;78801;-65
2021/04/11 04:56:47;;;;;;;40.40;25.10;;;;;;;8.10;68.30;100663.06;104885;1108;78206;-64
2021/04/11 04:58:58;;;;;;;39.70;28.90;;;;;;;8.17;68.06;100661.41;104807;1108;78155;-64
2021/04/11 05:01:16;;;;;;;39.00;27.20;;;;;;;8.28;67.86;100661.11;104850;1108;77440;-64
2021/04/11 05:03:25;;;;;;;35.80;24.30;;;;;;;8.51;67.45;100666.66;104812;1108;79241;-65
2021/04/11 05:05:32;;;;;;;30.30;21.90;;;;;;;8.84;66.76;100662.88;104902;1108;78646;-64
2021/04/11 05:07:49;;;;;;;31.60;24.00;;;;;;;9.24;66.56;100667.33;104819;1108;79713;-65
2021/04/11 05:10:05;;;;;;;34.80;22.70;;;;;;;9.98;66.28;100664.06;104882;1108;78131;-65
2021/04/11 05:12:15;;;;;;;27.10;20.00;;;;;;;10.97;65.53;100674.72;104862;1108;77477;-65
2021/04/11 05:14:27;;;;;;;27.80;19.50;;;;;;;11.74;64.25;100667.05;104861;1108;78215;-65
2021/04/11 05:16:38;;;;;;;27.10;17.60;;;;;;;12.61;63.37;100665.02;104852;1108;78338;-65
2021/04/11 05:18:49;;;;;;;24.00;16.80;;;;;;;13.78;61.89;100662.20;104870;1108;77096;-65
2021/04/11 05:21:01;;;;;;;24.80;16.70;;;;;;;14.70;59.54;100663.20;104817;1108;78215;-65
2021/04/11 05:23:15;;;;;;;21.60;16.10;;;;;;;15.62;57.79;100657.61;104831;1108;79082;-65
2021/04/11 05:25:28;;;;;;;22.50;15.70;;;;;;;16.76;56.24;100657.52;104841;1108;78969;-65
2021/04/11 05:27:44;;;;;;;21.40;14.60;;;;;;;17.37;54.21;100658.38;104856;1108;78422;-65
2021/04/11 05:30:00;;;;;;;22.00;14.20;;;;;;;18.06;52.07;100660.69;104870;1108;76924;-65
2021/04/11 05:32:10;;;;;;;22.00;14.20;;;;;;;18.59;50.60;100662.66;104834;1108;78011;-65
2021/04/11 05:34:18;;;;;;;18.90;12.60;;;;;;;19.18;48.34;100661.62;104761;1108;76998;-65
2021/04/11 05:36:43;;;;;;;17.20;11.50;;;;;;;19.73;46.59;100657.39;104839;1108;78313;-66
2021/04/11 05:39:05;;;;;;;19.30;11.90;;;;;;;20.36;46.42;100653.69;104832;1107;78159;-64
2021/04/11 05:41:18;;;;;;;16.00;12.00;;;;;;;20.69;44.25;100648.23;104878;1108;78584;-64
2021/04/11 05:43:31;;;;;;;17.10;13.00;;;;;;;20.74;40.02;100651.06;104844;1109;77901;-64
2021/04/11 05:45:44;;;;;;;16.00;12.20;;;;;;;20.95;40.26;100653.07;104863;1108;78183;-64
2021/04/11 05:48:04;;;;;;;15.20;12.20;;;;;;;20.91;40.50;100651.89;104844;1108;78376;-65
2021/04/11 05:50:18;;;;;;;18.30;12.40;;;;;;;21.01;36.56;100648.48;104825;1108;78276;-65
2021/04/11 05:52:30;;;;;;;16.10;11.80;;;;;;;20.77;38.43;100652.47;104797;1108;77408;-65
2021/04/11 05:54:41;;;;;;;15.90;10.30;;;;;;;20.92;38.36;100652.73;104874;1108;77572;-65
2021/04/11 05:56:54;;;;;;;18.00;12.70;;;;;;;20.98;37.84;100647.08;104831;1108;78319;-65
2021/04/11 05:59:05;;;;;;;20.10;12.10;;;;;;;21.52;37.21;100645.39;104809;1109;78619;-65
2021/04/11 06:01:17;;;;;;;15.60;11.30;;;;;;;21.90;36.80;100649.18;104887;1108;77614;-65
2021/04/11 06:03:25;;;;;;;14.80;11.50;;;;;;;21.57;36.18;100647.37;104946;1111;77373;-64
2021/04/11 06:05:38;;;;;;;14.40;10.20;;;;;;;21.70;36.11;100645.06;104876;1108;77164;-65
2021/04/11 06:07:55;;;;;;;17.20;12.50;;;;;;;21.53;35.83;100649.82;104812;1108;78878;-64
2021/04/11 06:10:10;;;;;;;14.60;11.50;;;;;;;21.72;36.27;100637.41;104859;1108;78095;-66
2021/04/11 06:12:25;;;;;;;14.40;10.50;;;;;;;22.11;34.90;100643.64;104875;1108;78135;-65
2021/04/11 06:14:36;;;;;;;19.10;11.30;;;;;;;22.32;35.38;100644.70;104813;1108;77073;-65
2021/04/11 06:16:43;;;;;;;15.20;11.10;;;;;;;22.31;34.84;100638.35;104847;1108;78280;-65
2021/04/11 06:18:55;;;;;;;13.90;10.50;;;;;;;22.84;34.67;100647.66;104784;1108;77049;-65
2021/04/11 06:21:11;;;;;;;17.70;11.20;;;;;;;23.33;33.17;100646.34;104824;1108;77199;-65
2021/04/11 06:23:25;;;;;;;16.10;11.40;;;;;;;23.42;33.15;100650.29;104848;1108;77685;-65
2021/04/11 06:25:38;;;;;;;14.00;10.80;;;;;;;23.54;32.30;100649.25;104828;1108;78421;-66
2021/04/11 06:27:54;;;;;;;17.80;11.10;;;;;;;23.57;32.02;100643.20;104854;1108;77895;-66
2021/04/11 06:30:10;;;;;;;15.20;12.00;;;;;;;23.45;31.17;100638.73;104817;1108;78388;-65
2021/04/11 06:32:16;;;;;;;17.60;11.60;;;;;;;23.23;31.44;100642.70;104849;1110;77497;-65
2021/04/11 06:34:27;;;;;;;16.10;10.50;;;;;;;23.15;31.89;100634.93;104840;1108;78962;-65
2021/04/11 06:36:36;;;;;;;16.00;10.50;;;;;;;23.05;31.67;100634.84;104877;1108;78800;-65
2021/04/11 06:38:47;;;;;;;13.30;10.10;;;;;;;23.07;31.99;100639.02;104849;1108;78887;-65
2021/04/11 06:41:22;;;;;;;14.20;10.90;;;;;;;23.27;32.29;100632.78;104910;1108;77607;-65
2021/04/11 06:44:03;;;;;;;12.60;10.50;;;;;;;24.04;30.98;100627.34;104850;1108;78122;-66
2021/04/11 06:46:07;;;;;;;14.10;10.80;;;;;;;23.61;30.25;100623.07;104856;1108;78060;-66
2021/04/11 06:48:57;;;;;;;14.40;10.50;;;;;;;23.71;30.61;100623.10;104784;1109;78274;-66
2021/04/11 06:51:48;;;;;;;14.40;9.60;;;;;;;23.15;30.93;100627.50;104871;1108;78321;-65
2021/04/11 06:54:44;;;;;;;19.60;12.40;;;;;;;23.18;31.11;100623.38;104911;1108;78102;-66
2021/04/11 06:57:03;;;;;;;14.90;11.40;;;;;;;23.32;30.12;100619.85;104804;1108;78090;-65
2021/04/11 06:59:28;;;;;;;13.00;10.30;;;;;;;23.24;27.94;100619.56;104900;1108;78852;-65
2021/04/11 07:02:04;;;;;;;14.00;10.50;;;;;;;23.49;29.83;100615.02;104849;1108;77567;-66
2021/04/11 07:04:43;;;;;;;13.10;10.00;;;;;;;23.74;30.07;100619.80;104874;1109;77452;-66
2021/04/11 07:07:35;;;;;;;15.80;10.30;;;;;;;24.33;30.01;100622.20;104857;1108;77996;-66
2021/04/11 07:10:08;;;;;;;12.60;10.30;;;;;;;25.42;28.68;100618.78;104848;1108;78849;-65
2021/04/11 07:12:42;;;;;;;14.90;10.30;;;;;;;25.80;28.77;100620.86;104926;1108;78319;-65
2021/04/11 07:15:19;;;;;;;10.70;8.70;;;;;;;25.87;28.05;100610.33;104991;1111;78131;-66
2021/04/11 07:17:41;;;;;;;15.20;10.20;;;;;;;26.16;27.78;100611.28;104854;1108;79726;-66
2021/04/11 07:20:09;;;;;;;13.50;9.80;;;;;;;26.31;26.96;100613.96;104901;1108;78834;-66
2021/04/11 07:22:54;;;;;;;13.80;9.40;;;;;;;26.55;26.40;100619.59;104931;1108;78717;-66
2021/04/11 07:25:30;;;;;;;11.60;9.20;;;;;;;26.25;26.87;100617.88;104985;1111;77567;-66
2021/04/11 07:27:56;;;;;;;11.90;8.90;;;;;;;26.59;26.15;100612.33;104889;1108;79635;-66
2021/04/11 07:30:18;;;;;;;14.30;9.10;;;;;;;26.22;26.88;100612.91;104825;1108;77573;-66
2021/04/11 07:32:59;;;;;;;14.50;9.60;;;;;;;26.40;25.92;100605.84;104832;1108;77825;-66
2021/04/11 07:35:21;;;;;;;13.80;9.00;;;;;;;26.86;26.32;100604.35;104973;1111;77930;-66
2021/04/11 07:37:54;;;;;;;14.90;10.00;;;;;;;27.23;24.29;100609.25;104950;1111;78576;-66
2021/04/11 07:40:15;;;;;;;12.20;9.40;;;;;;;27.52;25.83;100612.81;104904;1110;78303;-66
2021/04/11 07:43:07;;;;;;;10.50;8.40;;;;;;;27.71;24.87;100610.11;104835;1107;77984;-66
2021/04/11 07:45:28;;;;;;;13.00;9.10;;;;;;;27.57;25.14;100606.39;104807;1108;79562;-66
2021/04/11 07:47:54;;;;;;;11.30;9.00;;;;;;;27.93;25.23;100613.14;104828;1108;77317;-66
2021/04/11 07:50:37;;;;;;;12.20;8.70;;;;;;;28.64;23.40;100603.76;104859;1108;77390;-66
2021/04/11 07:53:20;;;;;;;12.40;8.90;;;;;;;29.20;23.67;100606.33;104892;1108;78188;-65
2021/04/11 07:55:46;;;;;;;13.80;9.40;;;;;;;29.92;22.96;100603.78;104869;1108;77980;-65
2021/04/11 07:58:11;;;;;;;13.60;9.10;;;;;;;30.19;23.07;100595.38;104872;1110;78604;-66
2021/04/11 08:00:39;;;;;;;11.40;8.90;;;;;;;30.80;22.49;100592.73;104906;1108;77641;-67
2021/04/11 08:03:20;;;;;;;12.60;9.10;;;;;;;31.54;21.90;100592.95;104885;1108;78883;-66
2021/04/11 08:05:45;;;;;;;12.20;9.30;;;;;;;31.92;22.04;100590.44;104847;1110;77152;-66
2021/04/11 08:08:10;;;;;;;11.00;8.40;;;;;;;32.20;21.14;100588.16;104866;1108;79359;-68
2021/04/11 08:10:47;;;;;;;12.60;8.50;;;;;;;32.19;20.15;100587.36;104913;1108;78722;-66
2021/04/11 08:13:34;;;;;;;13.70;9.40;;;;;;;32.14;20.52;100587.50;104860;1108;78034;-64
2021/04/11 08:15:47;;;;;;;10.70;8.40;;;;;;;31.83;19.19;100586.80;104888;1108;78742;-66
2021/04/11 08:18:24;;;;;;;14.40;8.90;;;;;;;31.96;20.66;100578.27;104948;1110;78929;-67
2021/04/11 08:21:07;;;;;;;10.80;8.00;;;;;;;31.84;18.11;100588.42;104959;1110;77653;-68
2021/04/11 08:23:50;;;;;;;9.90;8.70;;;;;;;31.39;19.31;100590.59;104956;1110;78943;-66
2021/04/11 08:26:18;;;;;;;10.50;8.60;;;;;;;31.63;20.11;100587.41;104960;1110;79736;-67
2021/04/11 08:28:52;;;;;;;9.50;8.10;;;;;;;31.68;20.00;100579.69;104978;1110;77291;-66
2021/04/11 08:31:29;;;;;;;12.60;9.40;;;;;;;32.20;19.40;100572.21;104961;1110;78421;-67
2021/04/11 08:33:56;;;;;;;10.60;9.20;;;;;;;32.62;19.81;100565.80;104952;1110;79144;-66
2021/04/11 08:36:37;;;;;;;12.20;8.70;;;;;;;33.14;19.02;100580.49;104982;1109;77378;-68
2021/04/11 08:39:30;;;;;;;10.40;9.00;;;;;;;32.09;19.05;100588.50;104975;1111;78424;-68
2021/04/11 08:42:00;;;;;;;11.90;8.80;;;;;;;31.82;18.95;100587.94;104967;1110;78854;-65
2021/04/11 08:44:24;;;;;;;9.90;8.50;;;;;;;30.80;19.74;100581.57;104961;1110;79287;-66
2021/04/11 08:47:01;;;;;;;9.80;8.70;;;;;;;30.47;19.09;100587.73;104955;1110;78203;-66
2021/04/11 08:49:20;;;;;;;11.60;9.20;;;;;;;29.98;20.15;100585.82;104977;1110;77766;-66
2021/04/11 08:51:33;;;;;;;10.40;9.10;;;;;;;30.14;20.14;100587.94;104962;1110;79654;-64
2021/04/11 08:53:53;;;;;;;12.60;9.20;;;;;;;29.39;19.89;100593.20;104966;1110;78669;-64
2021/04/11 08:56:08;;;;;;;10.70;8.40;;;;;;;29.75;20.64;100593.25;104963;1110;77365;-67
2021/04/11 08:58:37;;;;;;;9.50;8.20;;;;;;;30.02;20.44;100598.83;104999;1110;78388;-74
2021/04/11 09:00:50;;;;;;;13.30;8.40;;;;;;;29.65;20.60;100594.31;104956;1110;78232;-70
2021/04/11 09:03:11;;;;;;;14.40;7.90;;;;;;;29.69;21.05;100586.17;104972;1110;78737;-69
2021/04/11 09:05:35;;;;;;;12.70;8.70;;;;;;;29.89;20.90;100585.73;104945;1110;78563;-68
2021/04/11 09:08:06;;;;;;;10.50;8.00;;;;;;;29.64;20.48;100570.38;104973;1110;77041;-67
2021/04/11 09:10:26;;;;;;;9.90;8.20;;;;;;;29.69;20.89;100580.60;104965;1110;78120;-68
2021/04/11 09:12:45;;;;;;;11.60;7.90;;;;;;;29.43;21.13;100579.47;104983;1110;79043;-65
2021/04/11 09:15:10;;;;;;;9.60;7.50;;;;;;;29.63;20.79;100585.45;104984;1110;78857;-65
2021/04/11 09:18:01;;;;;;;10.20;7.90;;;;;;;28.55;19.99;100572.18;104960;1109;78370;-66
2021/04/11 09:20:18;;;;;;;9.90;7.60;;;;;;;28.30;21.19;100559.53;104874;1110;78084;-66
2021/04/11 09:22:48;;;;;;;9.50;7.10;;;;;;;28.62;21.86;100567.90;104868;1108;78145;-66
2021/04/11 09:25:05;;;;;;;9.80;7.20;;;;;;;28.82;20.61;100557.55;104874;1108;78729;-67
2021/04/11 09:27:40;;;;;;;8.40;6.50;;;;;;;28.09;21.56;100552.66;104873;1110;77546;-63
2021/04/11 09:30:01;;;;;;;9.90;6.30;;;;;;;28.53;21.81;100554.98;104843;1109;79185;-70
2021/04/11 09:32:27;;;;;;;8.00;5.90;;;;;;;28.34;20.55;100546.70;104878;1108;78348;-67
2021/04/11 09:35:06;;;;;;;7.30;6.30;;;;;;;28.18;21.63;100538.91;104827;1108;78592;-61
2021/04/11 09:37:41;;;;;;;10.30;5.70;;;;;;;27.95;21.52;100526.73;104799;1108;77343;-65
2021/04/11 09:40:11;;;;;;;7.00;5.40;;;;;;;27.23;20.77;100526.03;104896;1108;78405;-66
2021/04/11 09:42:37;;;;;;;8.30;5.10;;;;;;;26.37;21.61;100521.36;104853;1108;78007;-63
2021/04/11 09:44:58;;;;;;;6.10;4.20;;;;;;;26.00;21.38;100532.16;104837;1108;77130;-67
2021/04/11 09:47:20;;;;;;;5.90;4.30;;;;;;;25.14;21.66;100521.53;104816;1108;78140;-67
2021/04/11 09:49:50;;;;;;;5.40;4.30;;;;;;;24.54;22.51;100518.89;104935;1110;79042;-66
2021/04/11 09:52:28;;;;;;;7.90;4.40;;;;;;;24.21;23.00;100523.05;104856;1108;77721;-68
2021/04/11 09:54:44;;;;;;;6.10;3.90;;;;;;;24.08;23.76;100515.30;104890;1108;78829;-60
2021/04/11 09:57:11;;;;;;;5.90;3.70;;;;;;;24.15;23.87;100515.87;104811;1108;77769;-62
2021/04/11 09:59:35;;;;;;;5.70;3.70;;;;;;;23.86;23.00;100514.72;104830;1108;79551;-61
2021/04/11 10:01:52;;;;;;;5.70;3.10;;;;;;;23.40;23.52;100513.79;104854;1108;78054;-68
2021/04/11 10:04:19;;;;;;;7.80;3.50;;;;;;;22.94;23.52;100518.22;104885;1108;78880;-68
2021/04/11 10:06:55;;;;;;;6.40;3.30;;;;;;;22.18;24.10;100516.85;104892;1108;78219;-61
2021/04/11 10:09:32;;;;;;;5.50;2.60;;;;;;;22.01;25.07;100510.64;104961;1108;78481;-67
2021/04/11 10:12:04;;;;;;;4.50;2.90;;;;;;;21.88;25.00;100517.41;104980;1109;77365;-61
2021/04/11 10:14:36;;;;;;;5.90;2.90;;;;;;;21.85;25.38;100508.81;104924;1108;78462;-66
2021/04/11 10:16:57;;;;;;;5.80;3.10;;;;;;;21.55;25.29;100521.16;104938;1108;77769;-63
2021/04/11 10:19:38;;;;;;;4.80;2.80;;;;;;;21.16;25.66;100511.34;104909;1108;79092;-63
2021/04/11 10:22:03;;;;;;;6.00;3.20;;;;;;;20.94;25.70;100516.81;104881;1108;78879;-66
2021/04/11 10:24:26;;;;;;;4.90;2.50;;;;;;;20.79;26.20;100502.05;104833;1108;78351;-68